Time;durP1;ratioP1;P1;durP2;ratioP2;P2;SDS_P1;SDS_P2;PMS_P1;PMS_P2;Temp;Humidity;BMP_temperature;BMP_pressure;BME280_temperature;BME280_humidity;BME280_pressure;Samples;Min_cycle;Max_cycle;Signal;HPM_P1;HPM_P2
2023/04/15 00:01:17;;;;;;;9.48;5.55;;;;;;;;;;5074038;28;20131;-74
2023/04/15 00:03:43;;;;;;;9.80;5.38;;;;;;;;;;5077635;28;20041;-74
2023/04/15 00:06:09;;;;;;;13.52;6.07;;;;;;;;;;5076808;28;20052;-74
2023/04/15 00:08:35;;;;;;;8.52;6.05;;;;;;;;;;5097272;28;20123;-74
2023/04/15 00:11:04;;;;;;;11.40;7.03;;;;;;;;;;5097559;28;20072;-74
2023/04/15 00:13:31;;;;;;;12.27;6.60;;;;;;;;;;5098098;28;20059;-73
2023/04/15 00:15:57;;;;;;;9.70;6.57;;;;;;;;;;5095799;28;20485;-74
2023/04/15 00:18:24;;;;;;;8.00;6.30;;;;;;;;;;5077074;28;20048;-74
2023/04/15 00:20:51;;;;;;;9.60;5.78;;;;;;;;;;5077289;28;20117;-74
2023/04/15 00:23:17;;;;;;;12.25;6.28;;;;;;;;;;5088084;28;20080;-74
2023/04/15 00:25:43;;;;;;;7.32;5.15;;;;;;;;;;5095330;28;20044;-74
2023/04/15 00:28:10;;;;;;;7.43;5.55;;;;;;;;;;5095820;28;20055;-73
2023/04/15 00:30:36;;;;;;;8.00;5.25;;;;;;;;;;5097449;28;20044;-74
2023/04/15 00:33:02;;;;;;;10.02;6.20;;;;;;;;;;5098382;28;20452;-73
2023/04/15 00:35:31;;;;;;;9.05;5.05;;;;;;;;;;5100105;28;20501;-74
2023/04/15 00:37:57;;;;;;;8.52;5.85;;;;;;;;;;5100119;28;20079;-73
2023/04/15 00:40:23;;;;;;;10.85;5.80;;;;;;;;;;5091890;28;20054;-74
2023/04/15 00:42:50;;;;;;;11.35;6.05;;;;;;;;;;5075393;28;20045;-73
2023/04/15 00:45:16;;;;;;;10.50;5.95;;;;;;;;;;5075329;28;20406;-73
2023/04/15 00:47:42;;;;;;;11.45;5.88;;;;;;;;;;5076729;28;20048;-74
2023/04/15 00:50:09;;;;;;;9.02;6.05;;;;;;;;;;5075502;28;20383;-74
2023/04/15 00:52:36;;;;;;;10.77;6.30;;;;;;;;;;5089591;28;20044;-75
2023/04/15 00:55:03;;;;;;;8.93;6.40;;;;;;;;;;5097254;28;20040;-74
2023/04/15 00:57:29;;;;;;;9.75;6.30;;;;;;;;;;5095539;28;20089;-74
2023/04/15 00:59:56;;;;;;;8.70;6.60;;;;;;;;;;5085856;28;20040;-74
2023/04/15 01:02:22;;;;;;;9.88;6.20;;;;;;;;;;5096663;28;20040;-74
2023/04/15 01:04:48;;;;;;;10.65;6.38;;;;;;;;;;5096849;28;20044;-74
2023/04/15 01:07:14;;;;;;;9.93;6.45;;;;;;;;;;5096773;28;20044;-74
2023/04/15 01:09:41;;;;;;;10.00;6.60;;;;;;;;;;5095628;28;20051;-73
2023/04/15 01:12:09;;;;;;;9.23;6.45;;;;;;;;;;5096459;28;20059;-74
2023/04/15 01:14:35;;;;;;;11.25;6.82;;;;;;;;;;5095118;28;20040;-74
2023/04/15 01:17:01;;;;;;;11.10;7.30;;;;;;;;;;5091681;28;20049;-74
2023/04/15 01:19:28;;;;;;;12.20;7.32;;;;;;;;;;5076016;28;20059;-74
2023/04/15 01:21:55;;;;;;;13.73;7.93;;;;;;;;;;5075876;28;20119;-74
2023/04/15 01:24:22;;;;;;;15.82;7.90;;;;;;;;;;5092185;28;20067;-74
2023/04/15 01:26:49;;;;;;;12.60;7.80;;;;;;;;;;5094594;28;20387;-74
2023/04/15 01:29:15;;;;;;;13.30;8.07;;;;;;;;;;5083782;28;20041;-74
2023/04/15 01:31:48;;;;;;;15.13;8.68;;;;;;;;;;5094713;28;20235;-74
2023/04/15 01:34:14;;;;;;;13.70;8.90;;;;;;;;;;5095972;28;20047;-73
2023/04/15 01:36:40;;;;;;;13.45;9.07;;;;;;;;;;5095095;28;20101;-74
2023/04/15 01:39:07;;;;;;;13.82;7.72;;;;;;;;;;5094786;28;20048;-74
2023/04/15 01:41:33;;;;;;;12.32;7.75;;;;;;;;;;5095907;28;20040;-74
2023/04/15 01:43:59;;;;;;;13.95;8.75;;;;;;;;;;5091646;28;20052;-74
2023/04/15 01:46:25;;;;;;;15.77;8.23;;;;;;;;;;5075671;28;20048;-74
2023/04/15 01:48:51;;;;;;;14.02;8.55;;;;;;;;;;5075709;28;20075;-74
2023/04/15 01:51:17;;;;;;;14.88;8.55;;;;;;;;;;5075810;28;20075;-74
2023/04/15 01:53:43;;;;;;;15.68;8.90;;;;;;;;;;5075709;28;20037;-74
2023/04/15 01:56:09;;;;;;;16.08;9.50;;;;;;;;;;5075504;28;20516;-74
2023/04/15 01:58:36;;;;;;;13.68;9.40;;;;;;;;;;5075978;28;20086;-74
2023/04/15 02:01:02;;;;;;;16.77;9.55;;;;;;;;;;5094032;28;20047;-74
2023/04/15 02:03:29;;;;;;;15.00;9.82;;;;;;;;;;5075366;28;20056;-74
2023/04/15 02:05:55;;;;;;;16.17;10.35;;;;;;;;;;5075534;28;20048;-74
2023/04/15 02:08:21;;;;;;;14.52;9.30;;;;;;;;;;5074940;28;20517;-73
2023/04/15 02:10:47;;;;;;;11.70;9.07;;;;;;;;;;5075455;28;20036;-73
2023/04/15 02:13:14;;;;;;;13.63;8.75;;;;;;;;;;5073914;28;20114;-73
2023/04/15 02:15:40;;;;;;;17.23;9.90;;;;;;;;;;5075109;28;20076;-73
2023/04/15 02:18:06;;;;;;;14.68;9.43;;;;;;;;;;5092808;28;20048;-73
2023/04/15 02:20:33;;;;;;;17.60;10.20;;;;;;;;;;5093888;28;20052;-73
2023/04/15 02:22:59;;;;;;;16.63;9.02;;;;;;;;;;5089897;28;20479;-73
2023/04/15 02:25:25;;;;;;;13.00;8.75;;;;;;;;;;5094586;28;20051;-73
2023/04/15 02:27:52;;;;;;;16.25;9.35;;;;;;;;;;5094999;28;20046;-73
2023/04/15 02:30:18;;;;;;;13.52;9.70;;;;;;;;;;5093663;28;20036;-73
2023/04/15 02:32:44;;;;;;;13.88;8.95;;;;;;;;;;5094645;28;20044;-73
2023/04/15 02:35:10;;;;;;;15.13;9.88;;;;;;;;;;5073231;28;20052;-73
2023/04/15 02:37:42;;;;;;;13.98;9.35;;;;;;;;;;5074782;28;20045;-73
2023/04/15 02:40:10;;;;;;;13.13;9.27;;;;;;;;;;5073509;28;20397;-73
2023/04/15 02:42:37;;;;;;;16.52;10.02;;;;;;;;;;5073055;28;20502;-73
2023/04/15 02:45:03;;;;;;;17.05;9.70;;;;;;;;;;5074629;28;20052;-73
2023/04/15 02:47:29;;;;;;;15.02;10.10;;;;;;;;;;5074621;28;20393;-73
2023/04/15 02:49:57;;;;;;;17.30;9.82;;;;;;;;;;5075130;28;20383;-73
2023/04/15 02:52:23;;;;;;;14.23;9.15;;;;;;;;;;5094619;28;20044;-73
2023/04/15 02:54:49;;;;;;;13.60;9.00;;;;;;;;;;5094657;28;20052;-73
2023/04/15 02:57:15;;;;;;;13.30;8.45;;;;;;;;;;5094547;28;20040;-73
2023/04/15 02:59:41;;;;;;;11.27;7.90;;;;;;;;;;5079196;28;20071;-74
2023/04/15 03:02:07;;;;;;;11.90;7.47;;;;;;;;;;5074665;28;20451;-74
2023/04/15 03:04:33;;;;;;;15.40;8.68;;;;;;;;;;5078414;28;20043;-74
2023/04/15 03:07:01;;;;;;;12.95;8.32;;;;;;;;;;5094409;28;20040;-74
2023/04/15 03:09:27;;;;;;;13.82;9.02;;;;;;;;;;5094252;28;20044;-74
2023/04/15 03:11:53;;;;;;;14.95;9.30;;;;;;;;;;5094364;28;20386;-74
2023/04/15 03:14:19;;;;;;;12.70;8.82;;;;;;;;;;5094182;28;20498;-74
2023/04/15 03:16:45;;;;;;;13.23;8.55;;;;;;;;;;5086269;28;20051;-74
2023/04/15 03:19:11;;;;;;;11.85;8.45;;;;;;;;;;5073921;28;20061;-74
2023/04/15 03:21:37;;;;;;;14.68;8.38;;;;;;;;;;5074065;28;20053;-74
2023/04/15 03:24:04;;;;;;;13.20;8.77;;;;;;;;;;5074115;28;20098;-74
2023/04/15 03:26:30;;;;;;;14.73;8.75;;;;;;;;;;5073758;28;20044;-74
2023/04/15 03:28:57;;;;;;;16.52;9.00;;;;;;;;;;5080952;28;20447;-74
2023/04/15 03:31:23;;;;;;;12.77;8.23;;;;;;;;;;5093957;28;20051;-74
2023/04/15 03:33:50;;;;;;;14.93;9.38;;;;;;;;;;5093010;28;20046;-74
2023/04/15 03:36:16;;;;;;;13.30;9.20;;;;;;;;;;5092885;28;20051;-74
2023/04/15 03:38:42;;;;;;;16.77;10.73;;;;;;;;;;5094208;28;20052;-74
2023/04/15 03:41:09;;;;;;;16.17;10.60;;;;;;;;;;5099854;28;20048;-74
2023/04/15 03:43:35;;;;;;;16.38;10.63;;;;;;;;;;5098767;28;20500;-74
2023/04/15 03:46:01;;;;;;;16.55;10.25;;;;;;;;;;5094184;28;20394;-74
2023/04/15 03:48:28;;;;;;;17.80;11.20;;;;;;;;;;5092631;28;20116;-74
2023/04/15 03:50:54;;;;;;;18.27;11.70;;;;;;;;;;5093183;28;20077;-74
2023/04/15 03:53:20;;;;;;;16.77;10.63;;;;;;;;;;5093453;28;20048;-74
2023/04/15 03:55:47;;;;;;;19.50;10.93;;;;;;;;;;5093795;28;20032;-74
2023/04/15 03:58:13;;;;;;;16.40;10.90;;;;;;;;;;5093875;28;20051;-74
2023/04/15 04:00:40;;;;;;;15.15;10.20;;;;;;;;;;5088080;28;20056;-74
2023/04/15 04:03:06;;;;;;;17.02;10.85;;;;;;;;;;5084054;28;20177;-74
2023/04/15 04:05:35;;;;;;;13.70;9.80;;;;;;;;;;5093845;28;20494;-74
2023/04/15 04:08:01;;;;;;;15.65;11.30;;;;;;;;;;5093325;28;20055;-74
2023/04/15 04:10:27;;;;;;;13.80;10.25;;;;;;;;;;5093010;28;20443;-73
2023/04/15 04:12:53;;;;;;;15.50;10.05;;;;;;;;;;5093785;28;20040;-73
2023/04/15 04:15:19;;;;;;;15.05;9.52;;;;;;;;;;5093701;28;20044;-73
2023/04/15 04:17:46;;;;;;;16.35;10.43;;;;;;;;;;5082681;28;20047;-73
2023/04/15 04:20:12;;;;;;;17.25;9.82;;;;;;;;;;5075556;28;20037;-73
2023/04/15 04:22:38;;;;;;;20.58;11.00;;;;;;;;;;5093439;28;20047;-73
2023/04/15 04:25:05;;;;;;;17.30;10.82;;;;;;;;;;5093402;28;20466;-73
2023/04/15 04:27:31;;;;;;;14.88;9.57;;;;;;;;;;5093608;28;20474;-73
2023/04/15 04:29:57;;;;;;;15.27;9.70;;;;;;;;;;5091828;28;20509;-73
2023/04/15 04:32:23;;;;;;;16.90;10.40;;;;;;;;;;5082713;28;20479;-73
2023/04/15 04:34:49;;;;;;;16.27;10.63;;;;;;;;;;5073467;28;20041;-73
2023/04/15 04:37:15;;;;;;;15.60;9.85;;;;;;;;;;5073326;28;20036;-73
2023/04/15 04:39:41;;;;;;;14.63;10.10;;;;;;;;;;5073222;28;20051;-73
2023/04/15 04:42:07;;;;;;;15.88;10.75;;;;;;;;;;5072302;28;20051;-73
2023/04/15 04:44:33;;;;;;;14.32;8.50;;;;;;;;;;5073167;28;20044;-73
2023/04/15 04:46:59;;;;;;;14.25;9.55;;;;;;;;;;5071804;28;20047;-73
2023/04/15 04:49:25;;;;;;;15.52;9.13;;;;;;;;;;5076661;28;20049;-73
2023/04/15 04:51:52;;;;;;;15.40;9.02;;;;;;;;;;5076986;28;20048;-73
2023/04/15 04:54:18;;;;;;;13.00;8.35;;;;;;;;;;5076377;28;20045;-73
2023/04/15 04:56:44;;;;;;;15.77;8.98;;;;;;;;;;5076731;28;20036;-73
2023/04/15 04:59:10;;;;;;;14.88;8.60;;;;;;;;;;5076955;28;20087;-73
2023/04/15 05:01:36;;;;;;;15.18;8.25;;;;;;;;;;5076579;28;20036;-73
2023/04/15 05:04:03;;;;;;;12.18;7.68;;;;;;;;;;5076352;28;20048;-73
2023/04/15 05:06:29;;;;;;;12.10;7.35;;;;;;;;;;5076526;28;20059;-74
2023/04/15 05:08:56;;;;;;;13.05;7.28;;;;;;;;;;5076114;28;20044;-74
2023/04/15 05:11:22;;;;;;;10.30;7.25;;;;;;;;;;5076827;28;20080;-74
2023/04/15 05:13:48;;;;;;;10.88;6.65;;;;;;;;;;5076017;28;20429;-73
2023/04/15 05:16:14;;;;;;;10.73;6.72;;;;;;;;;;5076521;28;20536;-74
2023/04/15 05:18:40;;;;;;;11.68;6.90;;;;;;;;;;5075652;28;20151;-74
2023/04/15 05:21:06;;;;;;;10.60;6.82;;;;;;;;;;5085537;28;20111;-74
2023/04/15 05:23:32;;;;;;;10.45;7.20;;;;;;;;;;5096301;28;20044;-74
2023/04/15 05:25:58;;;;;;;10.40;6.65;;;;;;;;;;5096470;28;20376;-74
2023/04/15 05:28:24;;;;;;;10.07;7.22;;;;;;;;;;5096439;28;20127;-74
2023/04/15 05:30:51;;;;;;;10.52;6.88;;;;;;;;;;5094053;28;20044;-74
2023/04/15 05:33:17;;;;;;;10.50;6.47;;;;;;;;;;5096061;28;20413;-74
2023/04/15 05:35:43;;;;;;;9.27;6.20;;;;;;;;;;5095152;28;20047;-73
2023/04/15 05:38:09;;;;;;;10.77;7.03;;;;;;;;;;5096490;28;20040;-73
2023/04/15 05:40:35;;;;;;;8.40;6.15;;;;;;;;;;5095963;28;20066;-73
2023/04/15 05:43:01;;;;;;;10.63;6.53;;;;;;;;;;5096171;28;20048;-74
2023/04/15 05:45:27;;;;;;;10.88;6.43;;;;;;;;;;5091819;28;20045;-74
2023/04/15 05:47:53;;;;;;;11.55;6.88;;;;;;;;;;5075758;28;20094;-74
2023/04/15 05:50:20;;;;;;;10.35;6.82;;;;;;;;;;5075726;28;20040;-74
2023/04/15 05:52:46;;;;;;;11.75;7.70;;;;;;;;;;5091479;28;20055;-74
2023/04/15 05:55:13;;;;;;;13.93;8.68;;;;;;;;;;5095998;28;20533;-74
2023/04/15 05:57:39;;;;;;;14.05;8.30;;;;;;;;;;5096090;28;20135;-74
2023/04/15 06:00:05;;;;;;;15.23;9.98;;;;;;;;;;5094910;28;20470;-74
2023/04/15 06:02:32;;;;;;;22.30;10.68;;;;;;;;;;5095681;28;20048;-74
2023/04/15 06:04:58;;;;;;;21.13;12.07;;;;;;;;;;5095321;28;20048;-74
2023/04/15 06:07:24;;;;;;;24.73;13.05;;;;;;;;;;5093851;28;20455;-74
2023/04/15 06:09:50;;;;;;;30.02;15.05;;;;;;;;;;5094197;28;20122;-74
2023/04/15 06:12:16;;;;;;;31.55;15.73;;;;;;;;;;5095487;28;20086;-74
2023/04/15 06:14:42;;;;;;;36.63;16.73;;;;;;;;;;5095217;28;20062;-74
2023/04/15 06:17:09;;;;;;;34.72;16.33;;;;;;;;;;5095520;28;20075;-74
2023/04/15 06:19:35;;;;;;;34.47;17.63;;;;;;;;;;5095387;28;20102;-76
2023/04/15 06:22:02;;;;;;;37.33;17.27;;;;;;;;;;5094195;28;20048;-76
2023/04/15 06:24:28;;;;;;;31.88;16.10;;;;;;;;;;5095217;28;20139;-77
2023/04/15 06:26:55;;;;;;;31.13;16.40;;;;;;;;;;5093615;28;20032;-76
2023/04/15 06:29:21;;;;;;;25.58;14.90;;;;;;;;;;5088746;28;20052;-76
2023/04/15 06:31:48;;;;;;;24.98;12.90;;;;;;;;;;5074670;28;20094;-76
2023/04/15 06:34:14;;;;;;;25.20;13.98;;;;;;;;;;5074976;28;20044;-76
2023/04/15 06:36:40;;;;;;;23.15;14.07;;;;;;;;;;5074794;28;20182;-76
2023/04/15 06:39:06;;;;;;;24.25;13.38;;;;;;;;;;5077850;28;20041;-76
2023/04/15 06:41:33;;;;;;;25.35;13.73;;;;;;;;;;5095148;28;20047;-76
2023/04/15 06:43:59;;;;;;;21.45;14.23;;;;;;;;;;5089121;28;20429;-76
2023/04/15 06:46:25;;;;;;;21.73;12.88;;;;;;;;;;5080128;28;20461;-77
2023/04/15 06:48:51;;;;;;;21.40;12.80;;;;;;;;;;5080336;28;20102;-76
2023/04/15 06:51:17;;;;;;;20.23;11.85;;;;;;;;;;5086955;28;20032;-76
2023/04/15 06:53:43;;;;;;;19.75;11.80;;;;;;;;;;5094734;28;20089;-77
2023/04/15 06:56:09;;;;;;;17.60;11.13;;;;;;;;;;5090969;28;20038;-76
2023/04/15 06:58:35;;;;;;;17.30;10.52;;;;;;;;;;5074206;28;20047;-76
2023/04/15 07:01:02;;;;;;;16.15;9.88;;;;;;;;;;5074266;28;20047;-76
2023/04/15 07:03:28;;;;;;;18.80;9.93;;;;;;;;;;5056319;28;20371;-76
2023/04/15 07:05:54;;;;;;;15.40;9.77;;;;;;;;;;5082125;28;20129;-77
2023/04/15 07:08:20;;;;;;;16.23;10.02;;;;;;;;;;5073424;28;20149;-76
2023/04/15 07:10:47;;;;;;;17.48;9.30;;;;;;;;;;5072508;28;20097;-76
2023/04/15 07:13:13;;;;;;;16.90;8.60;;;;;;;;;;5077202;28;20094;-76
2023/04/15 07:15:39;;;;;;;11.80;8.02;;;;;;;;;;5092825;28;20074;-76
2023/04/15 07:18:05;;;;;;;12.27;7.43;;;;;;;;;;5092507;28;20046;-76
2023/04/15 07:20:31;;;;;;;13.35;7.72;;;;;;;;;;5088898;28;20056;-76
2023/04/15 07:22:57;;;;;;;12.23;6.93;;;;;;;;;;5072724;28;20052;-76
2023/04/15 07:25:23;;;;;;;10.75;6.78;;;;;;;;;;5072867;28;20045;-76
2023/04/15 07:27:50;;;;;;;13.60;7.15;;;;;;;;;;5074614;28;20405;-76
2023/04/15 07:30:16;;;;;;;11.73;7.10;;;;;;;;;;5092948;28;20509;-76
2023/04/15 07:32:42;;;;;;;10.05;6.45;;;;;;;;;;5092420;28;20048;-76
2023/04/15 07:35:09;;;;;;;9.73;6.00;;;;;;;;;;5094668;28;20040;-75
2023/04/15 07:37:36;;;;;;;10.40;6.80;;;;;;;;;;5092860;28;20044;-75
2023/04/15 07:40:05;;;;;;;10.27;6.47;;;;;;;;;;5092600;28;20127;-75
2023/04/15 07:42:32;;;;;;;9.00;5.57;;;;;;;;;;5095094;28;20051;-79
2023/04/15 07:44:58;;;;;;;10.73;6.55;;;;;;;;;;5087449;28;20049;-77
2023/04/15 07:47:24;;;;;;;8.55;5.95;;;;;;;;;;5072969;28;20049;-76
2023/04/15 07:49:50;;;;;;;11.18;6.00;;;;;;;;;;5072355;28;20068;-75
2023/04/15 07:52:16;;;;;;;8.57;5.82;;;;;;;;;;5073221;28;20495;-75
2023/04/15 07:54:42;;;;;;;8.52;5.68;;;;;;;;;;5082151;28;20459;-75
2023/04/15 07:57:08;;;;;;;9.25;5.47;;;;;;;;;;5065367;28;20098;-74
2023/04/15 07:59:34;;;;;;;8.27;5.25;;;;;;;;;;5092094;28;20048;-75
2023/04/15 08:02:01;;;;;;;10.98;5.97;;;;;;;;;;5093472;28;20039;-76
2023/04/15 08:04:27;;;;;;;9.43;6.18;;;;;;;;;;5082191;28;20186;-75
2023/04/15 08:06:53;;;;;;;10.32;6.30;;;;;;;;;;5072304;28;20485;-75
2023/04/15 08:09:20;;;;;;;10.00;6.88;;;;;;;;;;5079741;28;20059;-75
2023/04/15 08:11:48;;;;;;;9.68;5.70;;;;;;;;;;5094977;28;20058;-75
2023/04/15 08:14:14;;;;;;;9.23;5.97;;;;;;;;;;5091937;28;20055;-76
2023/04/15 08:16:40;;;;;;;9.23;6.35;;;;;;;;;;5092299;28;20048;-75
2023/04/15 08:19:06;;;;;;;9.30;6.05;;;;;;;;;;5091786;28;20064;-74
2023/04/15 08:21:32;;;;;;;9.77;5.63;;;;;;;;;;5090823;28;20055;-75
2023/04/15 08:23:59;;;;;;;11.65;6.78;;;;;;;;;;5096914;28;20079;-75
2023/04/15 08:26:25;;;;;;;10.13;6.43;;;;;;;;;;5092350;28;20048;-75
2023/04/15 08:28:51;;;;;;;8.90;5.70;;;;;;;;;;5079558;28;20098;-75
2023/04/15 08:31:18;;;;;;;7.13;5.38;;;;;;;;;;5075821;28;20052;-75
2023/04/15 08:33:45;;;;;;;9.95;6.00;;;;;;;;;;5075682;28;20119;-74
2023/04/15 08:36:12;;;;;;;7.45;5.10;;;;;;;;;;5080838;28;20044;-75
2023/04/15 08:38:38;;;;;;;10.48;5.32;;;;;;;;;;5097151;28;20040;-74
2023/04/15 08:41:12;;;;;;;8.25;5.30;;;;;;;;;;5095363;28;20063;-75
2023/04/15 08:43:43;;;;;;;9.05;4.75;;;;;;;;;;5089964;28;20146;-76
2023/04/15 08:46:10;;;;;;;8.43;5.03;;;;;;;;;;5094268;28;20047;-76
2023/04/15 08:48:37;;;;;;;11.32;5.20;;;;;;;;;;5096867;28;20055;-76
2023/04/15 08:51:03;;;;;;;7.03;4.43;;;;;;;;;;5091839;28;20043;-76
2023/04/15 08:53:29;;;;;;;7.25;4.50;;;;;;;;;;5092720;28;20055;-76
2023/04/15 08:55:57;;;;;;;7.35;4.30;;;;;;;;;;5096160;28;20401;-76
2023/04/15 08:58:24;;;;;;;8.88;4.38;;;;;;;;;;5087815;28;20041;-75
2023/04/15 09:00:50;;;;;;;7.80;4.22;;;;;;;;;;5088672;28;20474;-75
2023/04/15 09:03:16;;;;;;;7.53;4.30;;;;;;;;;;5096704;28;20039;-75
2023/04/15 09:05:42;;;;;;;8.32;4.25;;;;;;;;;;5090950;28;20457;-75
2023/04/15 09:08:09;;;;;;;7.55;4.10;;;;;;;;;;5095822;28;20054;-79
2023/04/15 09:10:35;;;;;;;6.63;4.32;;;;;;;;;;5096242;28;20052;-76
2023/04/15 09:13:01;;;;;;;6.80;3.80;;;;;;;;;;5095506;28;20132;-76
2023/04/15 09:15:31;;;;;;;6.18;3.88;;;;;;;;;;5083654;28;20094;-77
2023/04/15 09:17:57;;;;;;;8.35;4.13;;;;;;;;;;5076796;28;20049;-76
2023/04/15 09:20:23;;;;;;;8.85;3.67;;;;;;;;;;5076939;28;20052;-76
2023/04/15 09:22:50;;;;;;;4.93;3.40;;;;;;;;;;5089671;28;20052;-76
2023/04/15 09:25:26;;;;;;;4.63;3.00;;;;;;;;;;5076216;28;20105;-76
2023/04/15 09:27:53;;;;;;;7.57;3.20;;;;;;;;;;5076106;28;20414;-76
2023/04/15 09:30:20;;;;;;;7.30;3.30;;;;;;;;;;5075963;28;20076;-76
2023/04/15 09:32:50;;;;;;;5.65;3.20;;;;;;;;;;5075865;28;20387;-76
2023/04/15 09:35:16;;;;;;;4.60;3.08;;;;;;;;;;5074555;28;20369;-76
2023/04/15 09:37:42;;;;;;;7.80;2.80;;;;;;;;;;5093734;28;20494;-76
2023/04/15 09:40:09;;;;;;;4.18;2.80;;;;;;;;;;5094621;28;20054;-76
2023/04/15 09:42:35;;;;;;;6.93;2.67;;;;;;;;;;5096061;28;20141;-76
2023/04/15 09:45:08;;;;;;;3.67;2.40;;;;;;;;;;5094437;28;20398;-76
2023/04/15 09:47:34;;;;;;;4.95;2.70;;;;;;;;;;5094866;28;20053;-76
2023/04/15 09:50:01;;;;;;;4.15;2.67;;;;;;;;;;5088070;28;20494;-76
2023/04/15 09:52:27;;;;;;;3.85;2.40;;;;;;;;;;5083804;28;20813;-76
2023/04/15 09:54:57;;;;;;;4.28;2.67;;;;;;;;;;5087604;28;20041;-76
2023/04/15 09:57:23;;;;;;;3.15;2.30;;;;;;;;;;5085422;28;20566;-76
2023/04/15 09:59:50;;;;;;;6.57;2.63;;;;;;;;;;5069017;28;20048;-76
2023/04/15 10:02:18;;;;;;;3.40;2.50;;;;;;;;;;5078794;28;20036;-76
2023/04/15 10:04:45;;;;;;;3.92;2.20;;;;;;;;;;5085787;28;20066;-76
2023/04/15 10:07:14;;;;;;;4.00;2.38;;;;;;;;;;5093778;28;20043;-76
2023/04/15 10:09:40;;;;;;;4.95;2.70;;;;;;;;;;5093343;28;20099;-76
2023/04/15 10:12:06;;;;;;;4.72;2.72;;;;;;;;;;5095477;28;20059;-76
2023/04/15 10:14:37;;;;;;;3.92;2.30;;;;;;;;;;5087299;28;20056;-76
2023/04/15 10:17:04;;;;;;;5.75;2.20;;;;;;;;;;5079820;28;20052;-76
2023/04/15 10:19:36;;;;;;;3.50;2.13;;;;;;;;;;5080024;28;20071;-76
2023/04/15 10:22:02;;;;;;;3.90;2.60;;;;;;;;;;5092476;28;20056;-76
2023/04/15 10:24:31;;;;;;;4.05;2.45;;;;;;;;;;5082581;28;20044;-76
2023/04/15 10:26:59;;;;;;;3.78;2.25;;;;;;;;;;5085324;28;20055;-76
2023/04/15 10:29:28;;;;;;;3.38;2.13;;;;;;;;;;5082304;28;20048;-76
2023/04/15 10:31:58;;;;;;;3.65;2.42;;;;;;;;;;5074321;28;20052;-76
2023/04/15 10:34:25;;;;;;;3.72;2.20;;;;;;;;;;5081146;28;20047;-76
2023/04/15 10:36:51;;;;;;;3.90;2.35;;;;;;;;;;5084472;28;20040;-79
2023/04/15 10:39:32;;;;;;;4.70;2.63;;;;;;;;;;5092801;28;20494;-76
2023/04/15 10:42:18;;;;;;;5.10;2.40;;;;;;;;;;5093283;28;20576;-76
2023/04/15 10:44:50;;;;;;;7.35;3.28;;;;;;;;;;5083243;28;20133;-75
2023/04/15 10:47:18;;;;;;;3.33;2.50;;;;;;;;;;5087433;28;20036;-76
2023/04/15 10:49:57;;;;;;;3.38;2.10;;;;;;;;;;5086527;28;20040;-76
2023/04/15 10:52:27;;;;;;;3.70;2.10;;;;;;;;;;5078731;28;20051;-76
2023/04/15 10:55:03;;;;;;;2.88;2.30;;;;;;;;;;5094689;28;20039;-76
2023/04/15 10:57:34;;;;;;;3.72;2.53;;;;;;;;;;5094718;28;20162;-76
2023/04/15 11:00:05;;;;;;;3.70;2.20;;;;;;;;;;5083426;28;20044;-76
2023/04/15 11:02:40;;;;;;;3.25;2.42;;;;;;;;;;5092594;28;20046;-76
2023/04/15 11:05:07;;;;;;;5.68;2.80;;;;;;;;;;5093884;28;20043;-76
2023/04/15 11:07:51;;;;;;;4.93;2.75;;;;;;;;;;5089985;28;20040;-76
2023/04/15 11:10:17;;;;;;;3.90;2.85;;;;;;;;;;5094258;28;20165;-76
2023/04/15 11:12:53;;;;;;;3.78;2.58;;;;;;;;;;5090950;28;20067;-76
2023/04/15 11:15:32;;;;;;;5.43;2.97;;;;;;;;;;5073940;28;20044;-76
2023/04/15 11:18:16;;;;;;;6.63;3.50;;;;;;;;;;5077905;28;20044;-76
2023/04/15 11:20:50;;;;;;;5.85;2.80;;;;;;;;;;5093488;28;20043;-76
2023/04/15 11:23:17;;;;;;;6.10;2.55;;;;;;;;;;5092838;28;20036;-76
2023/04/15 11:25:43;;;;;;;7.20;3.50;;;;;;;;;;5073916;28;20139;-76
2023/04/15 11:28:10;;;;;;;5.85;2.85;;;;;;;;;;5076868;28;20040;-76
2023/04/15 11:30:37;;;;;;;9.00;3.72;;;;;;;;;;5078857;28;20101;-76
2023/04/15 11:33:04;;;;;;;5.60;2.65;;;;;;;;;;5088140;28;20040;-76
2023/04/15 11:35:30;;;;;;;8.57;2.80;;;;;;;;;;5093981;28;20047;-76
2023/04/15 11:37:57;;;;;;;5.88;2.97;;;;;;;;;;5084265;28;20052;-76
2023/04/15 11:40:27;;;;;;;6.10;2.90;;;;;;;;;;5073738;28;20097;-76
2023/04/15 11:43:05;;;;;;;4.60;2.30;;;;;;;;;;5074307;28;20088;-76
2023/04/15 11:45:31;;;;;;;4.18;2.35;;;;;;;;;;5073338;28;20047;-76
2023/04/15 11:48:07;;;;;;;5.03;2.30;;;;;;;;;;5073951;28;20040;-76
2023/04/15 11:50:33;;;;;;;6.07;2.87;;;;;;;;;;5073652;28;20052;-76
2023/04/15 11:53:01;;;;;;;5.15;2.53;;;;;;;;;;5073555;28;20037;-76
2023/04/15 11:55:27;;;;;;;4.65;2.80;;;;;;;;;;5086691;28;20496;-76
2023/04/15 11:58:09;;;;;;;6.93;2.40;;;;;;;;;;5093277;28;20093;-76
2023/04/15 12:00:35;;;;;;;7.03;2.53;;;;;;;;;;5093709;28;20044;-76
2023/04/15 12:03:17;;;;;;;7.15;2.85;;;;;;;;;;5091792;28;20570;-76
2023/04/15 12:06:02;;;;;;;8.30;2.75;;;;;;;;;;5093404;28;20044;-76
2023/04/15 12:08:47;;;;;;;4.97;2.40;;;;;;;;;;5093499;28;20042;-76
2023/04/15 12:11:14;;;;;;;6.88;2.72;;;;;;;;;;5092322;28;20054;-76
2023/04/15 12:13:47;;;;;;;8.13;2.75;;;;;;;;;;5091000;28;20072;-76
2023/04/15 12:16:18;;;;;;;8.18;2.45;;;;;;;;;;5078355;28;20048;-76
2023/04/15 12:18:50;;;;;;;6.88;2.88;;;;;;;;;;5092917;28;20418;-76
2023/04/15 12:21:19;;;;;;;11.75;2.50;;;;;;;;;;5073335;28;20052;-77
2023/04/15 12:23:51;;;;;;;8.02;2.65;;;;;;;;;;5073473;28;20045;-76
2023/04/15 12:26:18;;;;;;;7.35;2.33;;;;;;;;;;5073140;28;20491;-76
2023/04/15 12:28:47;;;;;;;5.32;2.10;;;;;;;;;;5075611;28;20090;-76
2023/04/15 12:31:14;;;;;;;9.82;2.25;;;;;;;;;;5073240;28;20040;-76
2023/04/15 12:33:40;;;;;;;6.13;2.17;;;;;;;;;;5088226;28;20076;-76
2023/04/15 12:36:06;;;;;;;6.10;2.38;;;;;;;;;;5093130;28;20044;-77
2023/04/15 12:38:32;;;;;;;5.72;2.10;;;;;;;;;;5093242;28;20048;-76
2023/04/15 12:40:58;;;;;;;8.25;2.85;;;;;;;;;;5081115;28;20048;-76
2023/04/15 12:43:25;;;;;;;5.32;1.98;;;;;;;;;;5073611;28;20124;-76
2023/04/15 12:45:51;;;;;;;9.30;2.05;;;;;;;;;;5074024;28;20048;-76
2023/04/15 12:48:17;;;;;;;11.18;2.42;;;;;;;;;;5073443;28;20045;-76
2023/04/15 12:50:45;;;;;;;11.00;2.60;;;;;;;;;;5073138;28;20513;-76
2023/04/15 12:53:11;;;;;;;8.00;2.55;;;;;;;;;;5072910;28;20053;-75
2023/04/15 12:55:37;;;;;;;7.85;2.50;;;;;;;;;;5084756;28;20048;-76
2023/04/15 12:58:04;;;;;;;9.50;2.90;;;;;;;;;;5085632;28;20120;-76
2023/04/15 13:00:30;;;;;;;6.32;2.50;;;;;;;;;;5081493;28;20514;-76
2023/04/15 13:02:56;;;;;;;6.80;1.95;;;;;;;;;;5077431;28;20059;-77
2023/04/15 13:05:22;;;;;;;6.53;2.30;;;;;;;;;;5076952;28;20056;-76
2023/04/15 13:07:48;;;;;;;8.63;2.25;;;;;;;;;;5073028;28;20044;-76
2023/04/15 13:10:14;;;;;;;6.97;2.30;;;;;;;;;;5074128;28;20123;-75
2023/04/15 13:12:40;;;;;;;9.98;2.45;;;;;;;;;;5075173;28;20052;-76
2023/04/15 13:15:09;;;;;;;9.23;2.55;;;;;;;;;;5078069;28;20045;-76
2023/04/15 13:17:35;;;;;;;7.43;2.38;;;;;;;;;;5076334;28;20478;-76
2023/04/15 13:20:01;;;;;;;7.20;1.95;;;;;;;;;;5080790;28;20711;-76
2023/04/15 13:22:27;;;;;;;10.25;2.47;;;;;;;;;;5088881;28;20124;-76
2023/04/15 13:24:53;;;;;;;9.43;2.60;;;;;;;;;;5081437;28;20044;-76
2023/04/15 13:27:20;;;;;;;7.63;2.45;;;;;;;;;;5096285;28;20044;-76
2023/04/15 13:29:46;;;;;;;13.48;3.20;;;;;;;;;;5093322;28;20119;-76
2023/04/15 13:32:12;;;;;;;7.30;2.55;;;;;;;;;;5077689;28;20463;-76
2023/04/15 13:34:38;;;;;;;7.40;3.35;;;;;;;;;;5094954;28;20051;-76
2023/04/15 13:37:08;;;;;;;11.93;2.65;;;;;;;;;;5087434;28;20048;-76
2023/04/15 13:39:34;;;;;;;6.63;2.60;;;;;;;;;;5061776;28;20072;-76
2023/04/15 13:42:01;;;;;;;8.00;2.88;;;;;;;;;;5096419;28;20040;-76
2023/04/15 13:44:27;;;;;;;6.28;2.35;;;;;;;;;;5095741;28;20044;-76
2023/04/15 13:46:53;;;;;;;7.18;2.53;;;;;;;;;;5086511;28;20392;-76
2023/04/15 13:49:19;;;;;;;6.13;2.20;;;;;;;;;;5096325;28;20041;-76
2023/04/15 13:51:45;;;;;;;6.72;2.13;;;;;;;;;;5079334;28;20123;-76
2023/04/15 13:54:12;;;;;;;4.70;2.08;;;;;;;;;;5095945;28;20040;-76
2023/04/15 13:56:38;;;;;;;6.22;2.10;;;;;;;;;;5095244;28;20043;-76
2023/04/15 13:59:05;;;;;;;7.07;2.50;;;;;;;;;;5094286;28;20040;-76
2023/04/15 14:01:31;;;;;;;8.38;2.28;;;;;;;;;;5074556;28;20051;-77
2023/04/15 14:03:57;;;;;;;6.88;2.20;;;;;;;;;;5088582;28;20382;-76
2023/04/15 14:06:25;;;;;;;7.05;2.15;;;;;;;;;;5079220;28;20382;-76
2023/04/15 14:08:51;;;;;;;7.82;2.50;;;;;;;;;;5079790;28;20125;-76
2023/04/15 14:11:17;;;;;;;7.22;2.08;;;;;;;;;;5088285;28;20467;-76
2023/04/15 14:13:43;;;;;;;7.97;2.10;;;;;;;;;;5085410;28;20044;-76
2023/04/15 14:16:09;;;;;;;7.80;2.10;;;;;;;;;;5090550;28;20097;-76
2023/04/15 14:18:36;;;;;;;7.65;2.20;;;;;;;;;;5093994;28;20058;-76
2023/04/15 14:21:02;;;;;;;7.68;2.40;;;;;;;;;;5093058;28;20510;-76
2023/04/15 14:23:28;;;;;;;7.82;2.58;;;;;;;;;;5084008;28;20446;-76
2023/04/15 14:25:54;;;;;;;7.28;2.30;;;;;;;;;;5077802;28;20040;-76
2023/04/15 14:28:20;;;;;;;7.65;2.95;;;;;;;;;;5084766;28;20040;-76
2023/04/15 14:30:46;;;;;;;6.72;2.30;;;;;;;;;;5089863;28;20043;-76
2023/04/15 14:33:12;;;;;;;9.55;2.75;;;;;;;;;;5094806;28;20043;-77